createdAt,value
2023-01-25T00:01:12.305Z,0
2023-01-25T00:02:15.869Z,0
2023-01-25T00:04:23.323Z,0
2023-01-25T00:06:30.621Z,0
2023-01-25T00:08:38.287Z,0
2023-01-25T00:09:42.491Z,0
2023-01-25T00:10:46.742Z,0
2023-01-25T00:11:50.621Z,0
2023-01-25T00:13:58.162Z,0
2023-01-25T00:15:01.603Z,0
2023-01-25T00:16:05.700Z,0
2023-01-25T00:17:09.410Z,0
2023-01-25T00:19:15.642Z,0
2023-01-25T00:21:22.379Z,0
2023-01-25T00:22:25.375Z,0
2023-01-25T00:24:32.701Z,0
2023-01-25T00:26:39.352Z,0
2023-01-25T00:28:46.255Z,0
2023-01-25T00:29:50.137Z,0
2023-01-25T00:31:56.300Z,0
2023-01-25T00:34:02.291Z,0
2023-01-25T00:35:06.136Z,0
2023-01-25T00:36:09.424Z,0
2023-01-25T00:37:13.195Z,0
2023-01-25T00:39:18.922Z,0
2023-01-25T00:40:21.993Z,0
2023-01-25T00:41:25.005Z,0
2023-01-25T00:42:27.731Z,0
2023-01-25T00:44:34.223Z,0
2023-01-25T00:45:38.384Z,0
2023-01-25T00:46:41.199Z,0
2023-01-25T00:47:44.254Z,0
2023-01-25T00:49:50.602Z,0
2023-01-25T00:51:57.115Z,0
2023-01-25T00:53:00.124Z,0
2023-01-25T00:54:03.236Z,0
2023-01-25T00:55:08.915Z,0
2023-01-25T00:57:14.077Z,0
2023-01-25T00:58:16.980Z,0
2023-01-25T00:59:19.172Z,0
2023-01-25T01:00:22.269Z,0
2023-01-25T01:02:29.059Z,0
2023-01-25T01:03:31.225Z,0
2023-01-25T01:04:35.075Z,0
2023-01-25T01:05:37.671Z,0
2023-01-25T01:07:43.287Z,0
2023-01-25T01:08:46.600Z,0
2023-01-25T01:09:50.370Z,0
2023-01-25T01:10:54.208Z,0
2023-01-25T01:13:01.029Z,0
2023-01-25T01:15:08.501Z,0
2023-01-25T01:16:12.953Z,0
2023-01-25T01:18:20.521Z,0
2023-01-25T01:20:26.416Z,0
2023-01-25T01:22:32.237Z,0
2023-01-25T01:23:35.237Z,0
2023-01-25T01:25:42.426Z,0
2023-01-25T01:27:48.973Z,0
2023-01-25T01:29:55.374Z,0
2023-01-25T01:30:58.069Z,0
2023-01-25T01:33:05.581Z,0
2023-01-25T01:35:12.505Z,0
2023-01-25T01:37:18.039Z,0
2023-01-25T01:38:21.036Z,0
2023-01-25T01:40:26.847Z,0
2023-01-25T01:42:33.063Z,0
2023-01-25T01:43:36.129Z,0
2023-01-25T01:44:39.890Z,0
2023-01-25T01:45:42.716Z,0
2023-01-25T01:47:49.778Z,0
2023-01-25T01:48:53.285Z,0
2023-01-25T01:51:00.370Z,0
2023-01-25T01:52:02.698Z,0
2023-01-25T01:54:08.825Z,0
2023-01-25T01:56:16.266Z,0
2023-01-25T01:57:19.456Z,0
2023-01-25T01:59:26.357Z,0
2023-01-25T02:00:30.258Z,0
2023-01-25T02:01:34.160Z,0
2023-01-25T02:02:37.647Z,0
2023-01-25T02:04:44.842Z,0
2023-01-25T02:05:48.612Z,0
2023-01-25T02:06:51.951Z,0
2023-01-25T02:07:54.833Z,0
2023-01-25T02:10:00.850Z,0
2023-01-25T02:12:07.373Z,0
2023-01-25T02:13:10.496Z,0
2023-01-25T02:15:16.765Z,0
2023-01-25T02:17:22.749Z,0
2023-01-25T02:19:29.280Z,0
2023-01-25T02:20:32.754Z,0
2023-01-25T02:22:39.552Z,0
2023-01-25T02:23:42.355Z,0
2023-01-25T02:24:45.656Z,0
2023-01-25T02:25:48.562Z,0
2023-01-25T02:27:54.683Z,0
2023-01-25T02:28:57.606Z,0
2023-01-25T02:30:01.760Z,0
2023-01-25T02:31:06.203Z,0
2023-01-25T02:33:12.990Z,0
2023-01-25T02:34:15.769Z,0
2023-01-25T02:36:22.798Z,0
2023-01-25T02:38:29.288Z,0
2023-01-25T02:40:35.486Z,0
2023-01-25T02:41:37.951Z,0
2023-01-25T02:43:43.905Z,0
2023-01-25T02:45:50.673Z,0
2023-01-25T02:47:55.976Z,0
2023-01-25T02:48:59.642Z,0
2023-01-25T02:51:05.921Z,0
2023-01-25T02:53:12.661Z,0
2023-01-25T02:54:15.836Z,0
2023-01-25T02:55:19.137Z,0
2023-01-25T02:56:22.268Z,0
2023-01-25T02:58:28.439Z,0
2023-01-25T03:00:34.696Z,0
2023-01-25T03:01:39.464Z,0
2023-01-25T03:03:46.255Z,0
2023-01-25T03:05:51.628Z,0
2023-01-25T03:07:58.360Z,0
2023-01-25T03:09:01.649Z,0
2023-01-25T03:11:08.190Z,0
2023-01-25T03:13:14.087Z,0
2023-01-25T03:15:19.835Z,0
2023-01-25T03:16:24.407Z,0
2023-01-25T03:18:30.368Z,0
2023-01-25T03:20:36.957Z,0
2023-01-25T03:22:43.210Z,0
2023-01-25T03:23:47.688Z,0
2023-01-25T03:25:54.487Z,0
2023-01-25T03:28:01.015Z,0
2023-01-25T03:30:06.629Z,0
2023-01-25T03:31:10.373Z,0
2023-01-25T03:33:16.951Z,0
2023-01-25T03:35:23.801Z,0
2023-01-25T03:37:31.138Z,0
2023-01-25T03:38:34.455Z,0
2023-01-25T03:40:41.072Z,0
2023-01-25T03:42:47.596Z,0
2023-01-25T03:44:52.872Z,0
2023-01-25T03:45:56.622Z,0
2023-01-25T03:48:02.923Z,0
2023-01-25T03:50:09.218Z,0
2023-01-25T03:52:15.037Z,0
2023-01-25T03:53:18.034Z,0
2023-01-25T03:55:24.589Z,0
2023-01-25T03:57:30.954Z,0
2023-01-25T03:58:34.325Z,0
2023-01-25T03:59:37.352Z,0
2023-01-25T04:00:40.971Z,0
2023-01-25T04:02:46.960Z,0
2023-01-25T04:03:50.487Z,0
2023-01-25T04:04:54.357Z,0
2023-01-25T04:05:57.351Z,0
2023-01-25T04:08:03.760Z,0
2023-01-25T04:10:10.177Z,0
2023-01-25T04:11:13.323Z,0
2023-01-25T04:13:18.946Z,0
2023-01-25T04:14:46.663Z,0
2023-01-25T04:15:49.742Z,0
2023-01-25T04:17:56.552Z,0
2023-01-25T04:20:03.090Z,0
2023-01-25T04:21:06.351Z,0
2023-01-25T04:23:12.315Z,0
2023-01-25T04:25:19.063Z,0
2023-01-25T04:27:26.271Z,0
2023-01-25T04:28:29.385Z,0
2023-01-25T04:29:43.811Z,0
2023-01-25T04:30:46.884Z,0
2023-01-25T04:32:54.138Z,0
2023-01-25T04:35:00.599Z,0
2023-01-25T04:37:07.452Z,0
2023-01-25T04:38:10.283Z,0
2023-01-25T04:40:16.179Z,0
2023-01-25T04:42:22.836Z,0
2023-01-25T04:44:28.723Z,0
2023-01-25T04:45:32.156Z,0
2023-01-25T04:47:37.889Z,0
2023-01-25T04:49:44.053Z,0
2023-01-25T04:51:50.759Z,0
2023-01-25T04:52:54.106Z,0
2023-01-25T04:54:59.938Z,0
2023-01-25T04:57:06.003Z,0
2023-01-25T04:59:12.579Z,0
2023-01-25T05:00:16.000Z,0
2023-01-25T05:02:23.430Z,0
2023-01-25T05:04:32.192Z,0
2023-01-25T05:06:38.594Z,0
2023-01-25T05:07:42.363Z,0
2023-01-25T05:09:48.218Z,0
2023-01-25T05:11:53.854Z,0
2023-01-25T05:14:00.769Z,0
2023-01-25T05:15:04.154Z,0
2023-01-25T05:17:13.448Z,0
2023-01-25T05:19:19.523Z,0
2023-01-25T05:21:24.963Z,0
2023-01-25T05:22:27.963Z,0
2023-01-25T05:24:34.586Z,0
2023-01-25T05:26:41.148Z,0
2023-01-25T05:28:47.620Z,0
2023-01-25T05:29:51.261Z,0
2023-01-25T05:30:54.510Z,0
2023-01-25T05:31:58.496Z,0
2023-01-25T05:34:04.172Z,0
2023-01-25T05:35:08.862Z,0
2023-01-25T05:36:11.966Z,0
2023-01-25T05:37:15.151Z,0
2023-01-25T05:39:20.897Z,0
2023-01-25T05:40:24.191Z,0
2023-01-25T05:41:27.224Z,0
2023-01-25T05:42:30.637Z,0
2023-01-25T05:44:36.817Z,0
2023-01-25T05:46:44.061Z,0
2023-01-25T05:47:46.515Z,0
2023-01-25T05:49:52.959Z,0
2023-01-25T05:51:58.221Z,0
2023-01-25T05:54:03.884Z,0
2023-01-25T05:55:08.482Z,0
2023-01-25T05:57:14.961Z,0
2023-01-25T05:59:20.879Z,0
2023-01-25T06:01:28.090Z,0
2023-01-25T06:02:32.404Z,0
2023-01-25T06:04:38.953Z,0
2023-01-25T06:06:45.539Z,0
2023-01-25T06:08:51.473Z,0
2023-01-25T06:09:54.465Z,0
2023-01-25T06:12:01.367Z,0
2023-01-25T06:14:07.650Z,0
2023-01-25T06:16:16.115Z,0
2023-01-25T06:17:19.670Z,0
2023-01-25T06:19:25.939Z,0
2023-01-25T06:21:31.987Z,0
2023-01-25T06:23:39.023Z,0
2023-01-25T06:24:41.816Z,0
2023-01-25T06:26:48.283Z,0
2023-01-25T06:28:55.343Z,0
2023-01-25T06:31:02.060Z,0
2023-01-25T06:32:06.317Z,0
2023-01-25T06:33:10.412Z,0
2023-01-25T06:34:13.808Z,0
2023-01-25T06:36:20.391Z,0
2023-01-25T06:37:23.870Z,0
2023-01-25T06:38:27.538Z,0
2023-01-25T06:39:30.894Z,0
2023-01-25T06:41:37.342Z,0
2023-01-25T06:43:43.922Z,0
2023-01-25T06:44:47.381Z,0
2023-01-25T06:46:53.810Z,0
2023-01-25T06:49:01.067Z,0
2023-01-25T06:51:08.521Z,0
2023-01-25T06:52:11.601Z,0
2023-01-25T06:54:18.333Z,0
2023-01-25T06:56:24.331Z,0
2023-01-25T06:58:30.919Z,0
2023-01-25T06:59:34.279Z,0
2023-01-25T07:01:41.230Z,0
2023-01-25T07:03:47.907Z,0
2023-01-25T07:05:54.779Z,0
2023-01-25T07:06:57.604Z,0
2023-01-25T07:09:05.453Z,0
2023-01-25T07:11:11.643Z,0
2023-01-25T07:13:17.976Z,1
2023-01-25T07:14:21.425Z,1
2023-01-25T07:16:27.857Z,1
2023-01-25T07:18:35.647Z,1
2023-01-25T07:20:42.240Z,1
2023-01-25T07:21:45.985Z,2
2023-01-25T07:22:49.184Z,2
2023-01-25T07:23:53.010Z,2
2023-01-25T07:25:59.223Z,2
2023-01-25T07:27:02.660Z,2
2023-01-25T07:28:06.373Z,2
2023-01-25T07:29:12.059Z,2
2023-01-25T07:31:19.058Z,3
2023-01-25T07:33:25.994Z,3
2023-01-25T07:34:29.003Z,3
2023-01-25T07:36:35.246Z,3
2023-01-25T07:38:41.369Z,4
2023-01-25T07:40:48.471Z,4
2023-01-25T07:41:51.253Z,4
2023-01-25T07:43:56.501Z,4
2023-01-25T07:46:03.604Z,5
2023-01-25T07:48:10.195Z,5
2023-01-25T07:49:12.997Z,5
2023-01-25T07:51:19.497Z,5
2023-01-25T07:53:27.008Z,6
2023-01-25T07:55:32.610Z,6
2023-01-25T07:56:35.675Z,6
2023-01-25T07:58:41.998Z,6
2023-01-25T08:00:48.284Z,7
2023-01-25T08:02:54.966Z,7
2023-01-25T08:03:58.287Z,7
2023-01-25T08:06:04.912Z,7
2023-01-25T08:08:12.131Z,8
2023-01-25T08:10:18.590Z,9
2023-01-25T08:11:22.176Z,9
2023-01-25T08:13:28.434Z,9
2023-01-25T08:15:35.627Z,10
2023-01-25T08:17:43.078Z,10
2023-01-25T08:18:46.701Z,11
2023-01-25T08:20:52.916Z,11
2023-01-25T08:22:59.593Z,11
2023-01-25T08:25:08.547Z,11
2023-01-25T08:26:11.487Z,11
2023-01-25T08:28:18.480Z,11
2023-01-25T08:30:25.434Z,12
2023-01-25T08:32:32.700Z,12
2023-01-25T08:33:36.381Z,13
2023-01-25T08:35:44.408Z,13
2023-01-25T08:37:50.199Z,13
2023-01-25T08:39:57.117Z,14
2023-01-25T08:41:00.792Z,14
2023-01-25T08:43:07.179Z,15
2023-01-25T08:45:13.057Z,15
2023-01-25T08:47:19.143Z,15
2023-01-25T08:48:22.158Z,15
2023-01-25T08:50:29.313Z,17
2023-01-25T08:52:36.059Z,17
2023-01-25T08:53:39.474Z,19
2023-01-25T08:54:42.666Z,19
2023-01-25T08:55:46.459Z,19
2023-01-25T08:57:52.393Z,18
2023-01-25T09:00:00.200Z,18
2023-01-25T09:01:03.575Z,18
2023-01-25T09:03:09.019Z,19
2023-01-25T09:05:16.265Z,19
2023-01-25T09:07:23.575Z,20
2023-01-25T09:08:26.394Z,19
2023-01-25T09:10:31.927Z,20
2023-01-25T09:12:39.895Z,20
2023-01-25T09:13:43.571Z,19
2023-01-25T09:14:47.354Z,20
2023-01-25T09:15:51.128Z,20
2023-01-25T09:17:58.006Z,21
2023-01-25T09:20:05.621Z,22
2023-01-25T09:21:08.762Z,21
2023-01-25T09:23:15.694Z,22
2023-01-25T09:25:22.538Z,22
2023-01-25T09:26:25.713Z,24
2023-01-25T09:28:33.016Z,22
2023-01-25T09:31:27.478Z,24
2023-01-25T09:32:32.926Z,23
2023-01-25T09:33:36.997Z,23
2023-01-25T09:35:43.963Z,25
2023-01-25T09:37:51.149Z,24
2023-01-25T09:38:54.218Z,24
2023-01-25T09:39:57.900Z,25
2023-01-25T09:41:00.745Z,25
2023-01-25T09:42:16.997Z,26
2023-01-25T09:43:20.439Z,26
2023-01-25T09:44:24.426Z,28
2023-01-25T09:46:30.653Z,29
2023-01-25T09:47:34.588Z,28
2023-01-25T09:49:41.140Z,28
2023-01-25T09:51:48.278Z,28
2023-01-25T09:52:51.549Z,27
2023-01-25T09:54:58.016Z,28
2023-01-25T09:57:05.292Z,29
2023-01-25T09:58:08.594Z,29
2023-01-25T10:00:16.500Z,28
2023-01-25T10:01:40.212Z,28
2023-01-25T10:02:44.288Z,29
2023-01-25T10:04:50.110Z,30
2023-01-25T10:05:53.869Z,30
2023-01-25T10:07:03.486Z,29
2023-01-25T10:08:06.778Z,30
2023-01-25T10:10:13.853Z,30
2023-01-25T10:11:16.680Z,30
2023-01-25T10:13:22.867Z,29
2023-01-25T10:15:30.010Z,30
2023-01-25T10:16:35.566Z,29
2023-01-25T10:18:42.812Z,30
2023-01-25T10:20:49.576Z,29
2023-01-25T10:21:53.001Z,30
2023-01-25T10:23:59.940Z,31
2023-01-25T10:26:07.266Z,31
2023-01-25T10:27:10.747Z,31
2023-01-25T10:29:17.709Z,30
2023-01-25T10:31:25.262Z,29
2023-01-25T10:32:29.087Z,30
2023-01-25T10:33:38.172Z,30
2023-01-25T10:34:59.500Z,30
2023-01-25T10:37:05.961Z,32
2023-01-25T10:39:13.097Z,32
2023-01-25T10:40:17.026Z,33
2023-01-25T10:42:23.335Z,32
2023-01-25T10:44:29.699Z,32
2023-01-25T10:45:33.511Z,32
2023-01-25T10:47:39.882Z,33
2023-01-25T10:49:46.615Z,32
2023-01-25T10:50:50.514Z,32
2023-01-25T10:51:54.186Z,32
2023-01-25T10:52:57.160Z,32
2023-01-25T10:55:03.721Z,33
2023-01-25T10:56:07.089Z,33
2023-01-25T10:57:09.854Z,33
2023-01-25T10:58:13.605Z,32
2023-01-25T11:00:19.230Z,33
2023-01-25T11:01:23.049Z,33
2023-01-25T11:03:29.511Z,34
2023-01-25T11:04:32.577Z,35
2023-01-25T11:05:36.280Z,35
2023-01-25T11:06:39.638Z,34
2023-01-25T11:08:46.900Z,34
2023-01-25T11:09:49.880Z,34
2023-01-25T11:10:53.045Z,35
2023-01-25T11:11:56.133Z,35
2023-01-25T11:14:02.260Z,35
2023-01-25T11:16:09.390Z,35
2023-01-25T11:17:13.134Z,34
2023-01-25T11:19:19.662Z,34
2023-01-25T11:21:26.450Z,33
2023-01-25T11:22:29.589Z,33
2023-01-25T11:24:36.387Z,33
2023-01-25T11:26:43.403Z,33
2023-01-25T11:27:46.535Z,32
2023-01-25T11:29:53.610Z,32
2023-01-25T11:32:01.402Z,32
2023-01-25T11:33:05.202Z,32
2023-01-25T11:34:08.789Z,32
2023-01-25T11:35:15.248Z,31
2023-01-25T11:37:22.530Z,32
2023-01-25T11:38:26.351Z,32
2023-01-25T11:39:30.092Z,32
2023-01-25T11:40:33.638Z,32
2023-01-25T11:42:40.407Z,33
2023-01-25T11:43:43.495Z,33
2023-01-25T11:45:49.721Z,31
2023-01-25T11:47:56.236Z,31
2023-01-25T11:49:00.030Z,32
2023-01-25T11:51:06.243Z,32
2023-01-25T11:52:09.541Z,32
2023-01-25T11:54:16.079Z,32
2023-01-25T11:56:22.885Z,32
2023-01-25T11:57:26.167Z,32
2023-01-25T11:59:33.078Z,31
2023-01-25T12:00:36.484Z,31
2023-01-25T12:01:39.485Z,32
2023-01-25T12:02:43.106Z,31
2023-01-25T12:04:50.296Z,30
2023-01-25T12:05:53.312Z,30
2023-01-25T12:07:59.826Z,30
2023-01-25T12:09:02.890Z,29
2023-01-25T12:11:08.389Z,29
2023-01-25T12:12:12.196Z,30
2023-01-25T12:13:15.205Z,31
2023-01-25T12:14:19.082Z,31
2023-01-25T12:16:26.005Z,31
2023-01-25T12:17:30.052Z,30
2023-01-25T12:19:36.989Z,30
2023-01-25T12:21:44.490Z,29
2023-01-25T12:22:47.861Z,29
2023-01-25T12:24:53.897Z,30
2023-01-25T12:25:56.712Z,30
2023-01-25T12:27:00.377Z,31
2023-01-25T12:28:04.112Z,31
2023-01-25T12:30:13.915Z,31
2023-01-25T12:31:17.526Z,32
2023-01-25T12:33:23.731Z,32
2023-01-25T12:34:27.078Z,31
2023-01-25T12:35:29.813Z,32
2023-01-25T12:36:33.333Z,31
2023-01-25T12:38:40.537Z,32
2023-01-25T12:39:44.383Z,30
2023-01-25T12:41:51.211Z,31
2023-01-25T12:43:56.977Z,29
2023-01-25T12:45:00.347Z,29
2023-01-25T12:47:07.171Z,29
2023-01-25T12:49:12.692Z,29
2023-01-25T12:50:16.438Z,29
2023-01-25T12:52:22.992Z,28
2023-01-25T12:53:26.420Z,28
2023-01-25T12:54:29.784Z,28
2023-01-25T12:55:32.907Z,27
2023-01-25T12:57:38.958Z,26
2023-01-25T12:58:42.990Z,26
2023-01-25T13:00:49.645Z,26
2023-01-25T13:02:57.183Z,26
2023-01-25T13:04:00.634Z,26
2023-01-25T13:06:07.748Z,26
2023-01-25T13:08:33.780Z,25
2023-01-25T13:09:37.698Z,26
2023-01-25T13:10:41.047Z,26
2023-01-25T13:11:44.153Z,25
2023-01-25T13:12:47.425Z,25
2023-01-25T13:13:49.957Z,26
2023-01-25T13:14:53.329Z,25
2023-01-25T13:17:12.643Z,25
2023-01-25T13:18:16.187Z,25
2023-01-25T13:20:23.116Z,24
2023-01-25T13:22:29.749Z,23
2023-01-25T13:23:33.810Z,23
2023-01-25T13:24:36.630Z,23
2023-01-25T13:25:40.113Z,23
2023-01-25T13:27:47.217Z,22
2023-01-25T13:28:50.303Z,24
2023-01-25T13:29:53.752Z,22
2023-01-25T13:30:57.178Z,21
2023-01-25T13:33:05.006Z,21
2023-01-25T13:34:08.428Z,21
2023-01-25T13:36:14.808Z,20
2023-01-25T13:37:17.978Z,21
2023-01-25T13:38:21.319Z,20
2023-01-25T13:39:24.963Z,20
2023-01-25T13:41:31.502Z,20
2023-01-25T13:42:34.316Z,19
2023-01-25T13:43:37.763Z,19
2023-01-25T13:44:40.896Z,18
2023-01-25T13:46:47.852Z,17
2023-01-25T13:47:51.215Z,17
2023-01-25T13:49:57.720Z,17
2023-01-25T13:52:04.678Z,17
2023-01-25T13:53:08.067Z,17
2023-01-25T13:55:14.476Z,15
2023-01-25T13:57:22.231Z,15
2023-01-25T13:58:26.393Z,15
2023-01-25T13:59:30.095Z,15
2023-01-25T14:00:34.330Z,14
2023-01-25T14:02:40.240Z,14
2023-01-25T14:03:43.596Z,14
2023-01-25T14:05:49.944Z,13
2023-01-25T14:07:55.813Z,13
2023-01-25T14:08:59.164Z,13
2023-01-25T14:10:02.829Z,13
2023-01-25T14:11:05.953Z,13
2023-01-25T14:13:13.190Z,13
2023-01-25T14:14:16.640Z,13
2023-01-25T14:16:22.844Z,13
2023-01-25T14:18:28.836Z,13
2023-01-25T14:19:31.569Z,13
2023-01-25T14:20:35.239Z,12
2023-01-25T14:21:39.025Z,12
2023-01-25T14:23:44.944Z,12
2023-01-25T14:25:52.016Z,11
2023-01-25T14:26:56.062Z,10
2023-01-25T14:29:32.369Z,10
2023-01-25T14:30:36.651Z,10
2023-01-25T14:31:40.837Z,9
2023-01-25T14:33:47.074Z,9
2023-01-25T14:36:26.819Z,9
2023-01-25T14:37:30.676Z,8
2023-01-25T14:38:34.030Z,8
2023-01-25T14:39:37.572Z,8
2023-01-25T14:42:03.533Z,8
2023-01-25T14:44:10.292Z,8
2023-01-25T14:46:17.750Z,7
2023-01-25T14:47:21.135Z,7
2023-01-25T14:49:28.588Z,6
2023-01-25T14:50:31.718Z,6
2023-01-25T14:51:38.844Z,6
2023-01-25T14:52:42.864Z,6
2023-01-25T14:54:50.746Z,5
2023-01-25T14:56:57.603Z,5
2023-01-25T14:58:00.942Z,5
2023-01-25T15:00:07.282Z,5
2023-01-25T15:02:15.814Z,4
2023-01-25T15:03:18.897Z,4
2023-01-25T15:04:21.363Z,4
2023-01-25T15:05:24.700Z,4
2023-01-25T15:07:30.929Z,4
2023-01-25T15:08:34.277Z,4
2023-01-25T15:09:37.885Z,4
2023-01-25T15:10:40.886Z,4
2023-01-25T15:12:47.161Z,3
2023-01-25T15:13:50.467Z,3
2023-01-25T15:15:56.592Z,3
2023-01-25T15:18:02.872Z,2
2023-01-25T15:20:11.979Z,2
2023-01-25T15:21:15.131Z,2
2023-01-25T15:23:22.222Z,2
2023-01-25T15:25:29.593Z,2
2023-01-25T15:26:33.258Z,2
2023-01-25T15:27:36.613Z,1
2023-01-25T15:28:39.880Z,1
2023-01-25T15:30:48.188Z,1
2023-01-25T15:31:51.566Z,1
2023-01-25T15:32:54.679Z,1
2023-01-25T15:33:57.861Z,1
2023-01-25T15:36:04.711Z,1
2023-01-25T15:37:08.440Z,1
2023-01-25T15:38:11.775Z,1
2023-01-25T15:39:15.446Z,0
2023-01-25T15:41:21.650Z,0
2023-01-25T15:43:27.586Z,0
2023-01-25T15:44:30.378Z,0
2023-01-25T15:46:37.186Z,0
2023-01-25T15:48:43.801Z,0
2023-01-25T15:50:50.769Z,0
2023-01-25T15:51:54.112Z,0
2023-01-25T15:53:59.658Z,0
2023-01-25T15:56:08.010Z,0
2023-01-25T15:58:14.623Z,0
2023-01-25T15:59:18.651Z,0
2023-01-25T16:01:24.990Z,0
2023-01-25T16:03:31.814Z,0
2023-01-25T16:05:39.066Z,0
2023-01-25T16:06:42.393Z,0
2023-01-25T16:08:48.916Z,0
2023-01-25T16:10:55.485Z,0
2023-01-25T16:13:02.610Z,0
2023-01-25T16:14:05.603Z,0
2023-01-25T16:16:10.856Z,0
2023-01-25T16:18:16.772Z,0
2023-01-25T16:19:19.801Z,0
2023-01-25T16:20:23.451Z,0
2023-01-25T16:21:27.075Z,0
2023-01-25T16:23:33.315Z,0
2023-01-25T16:25:42.985Z,0
2023-01-25T16:26:46.662Z,0
2023-01-25T16:28:53.831Z,0
2023-01-25T16:31:01.384Z,0
2023-01-25T16:33:08.779Z,0
2023-01-25T16:34:12.552Z,0
2023-01-25T16:36:19.114Z,0
2023-01-25T16:38:25.912Z,0
2023-01-25T16:40:32.673Z,0
2023-01-25T16:41:35.468Z,0
2023-01-25T16:43:45.484Z,0
2023-01-25T16:45:52.324Z,0
2023-01-25T16:47:59.160Z,0
2023-01-25T16:49:02.520Z,0
2023-01-25T16:51:09.160Z,0
2023-01-25T16:53:15.439Z,0
2023-01-25T16:55:21.925Z,0
2023-01-25T16:56:25.293Z,0
2023-01-25T16:58:30.815Z,0
2023-01-25T17:00:37.276Z,0
2023-01-25T17:03:01.807Z,0
2023-01-25T17:05:08.470Z,0
2023-01-25T17:06:14.965Z,0
2023-01-25T17:08:22.111Z,0
2023-01-25T17:10:31.068Z,0
2023-01-25T17:11:34.079Z,0
2023-01-25T17:13:40.367Z,0
2023-01-25T17:15:48.047Z,0
2023-01-25T17:17:54.517Z,0
2023-01-25T17:18:57.582Z,0
2023-01-25T17:21:04.492Z,0
2023-01-25T17:23:11.194Z,0
2023-01-25T17:25:18.352Z,0
2023-01-25T17:26:21.686Z,0
2023-01-25T17:28:27.959Z,0
2023-01-25T17:30:35.071Z,0
2023-01-25T17:32:42.371Z,0
2023-01-25T17:33:45.079Z,0
2023-01-25T17:35:50.514Z,0
2023-01-25T17:37:56.858Z,0
2023-01-25T17:40:03.582Z,0
2023-01-25T17:41:06.316Z,0
2023-01-25T17:43:12.013Z,0
2023-01-25T17:45:18.220Z,0
2023-01-25T17:46:21.939Z,0
2023-01-25T17:47:24.993Z,0
2023-01-25T17:48:28.164Z,0
2023-01-25T17:50:34.543Z,0
2023-01-25T17:51:37.627Z,0
2023-01-25T17:52:40.662Z,0
2023-01-25T17:53:44.152Z,0
2023-01-25T17:55:49.808Z,0
2023-01-25T17:56:53.479Z,0
2023-01-25T17:57:56.571Z,0
2023-01-25T17:58:59.575Z,0
2023-01-25T18:01:16.215Z,0
2023-01-25T18:03:23.690Z,0
2023-01-25T18:04:27.064Z,0
2023-01-25T18:06:34.166Z,0
2023-01-25T18:08:42.242Z,0
2023-01-25T18:10:50.152Z,0
2023-01-25T18:11:53.835Z,0
2023-01-25T18:13:07.058Z,0
2023-01-25T18:14:10.556Z,0
2023-01-25T18:16:19.321Z,0
2023-01-25T18:18:26.726Z,0
2023-01-25T18:19:30.594Z,0
2023-01-25T18:21:37.838Z,0
2023-01-25T18:23:46.413Z,0
2023-01-25T18:25:54.542Z,0
2023-01-25T18:27:00.612Z,0
2023-01-25T18:29:08.722Z,0
2023-01-25T18:31:17.953Z,0
2023-01-25T18:33:25.488Z,0
2023-01-25T18:34:29.389Z,0
2023-01-25T18:36:37.014Z,0
2023-01-25T18:38:44.654Z,0
2023-01-25T18:40:52.997Z,0
2023-01-25T18:41:56.854Z,0
2023-01-25T18:43:00.088Z,0
2023-01-25T18:44:04.078Z,0
2023-01-25T18:46:12.686Z,0
2023-01-25T18:47:15.922Z,0
2023-01-25T18:48:20.055Z,0
2023-01-25T18:49:24.215Z,0
2023-01-25T18:51:31.778Z,0
2023-01-25T18:52:35.081Z,0
2023-01-25T18:53:39.035Z,0
2023-01-25T18:54:42.973Z,0
2023-01-25T18:56:51.385Z,0
2023-01-25T18:58:58.382Z,0
2023-01-25T19:00:02.714Z,0
2023-01-25T19:02:10.563Z,0
2023-01-25T19:04:18.104Z,0
2023-01-25T19:06:26.215Z,0
2023-01-25T19:07:29.843Z,0
2023-01-25T19:09:38.083Z,0
2023-01-25T19:11:45.686Z,0
2023-01-25T19:13:53.531Z,0
2023-01-25T19:14:57.072Z,0
2023-01-25T19:16:01.236Z,0
2023-01-25T19:17:05.567Z,0
2023-01-25T19:19:12.438Z,0
2023-01-25T19:21:19.030Z,0
2023-01-25T19:22:22.728Z,0
2023-01-25T19:24:30.078Z,0
2023-01-25T19:26:37.629Z,0
2023-01-25T19:28:44.174Z,0
2023-01-25T19:29:47.544Z,0
2023-01-25T19:31:55.931Z,0
2023-01-25T19:34:02.847Z,0
2023-01-25T19:36:08.674Z,0
2023-01-25T19:37:11.800Z,0
2023-01-25T19:39:18.184Z,0
2023-01-25T19:41:26.031Z,0
2023-01-25T19:43:33.754Z,0
2023-01-25T19:44:38.200Z,0
2023-01-25T19:46:45.346Z,0
2023-01-25T19:48:53.181Z,0
2023-01-25T19:51:01.193Z,0
2023-01-25T19:52:05.430Z,0
2023-01-25T19:53:09.647Z,0
2023-01-25T19:54:14.266Z,0
2023-01-25T19:56:23.584Z,0
2023-01-25T19:58:31.299Z,0
2023-01-25T19:59:35.634Z,0
2023-01-25T20:01:43.461Z,0
2023-01-25T20:03:51.320Z,0
2023-01-25T20:05:58.825Z,0
2023-01-25T20:07:02.207Z,0
2023-01-25T20:09:08.475Z,0
2023-01-25T20:11:14.220Z,0
2023-01-25T20:13:21.655Z,0
2023-01-25T20:14:25.709Z,0
2023-01-25T20:15:29.879Z,0
2023-01-25T20:16:33.863Z,0
2023-01-25T20:18:41.826Z,0
2023-01-25T20:19:45.008Z,0
2023-01-25T20:20:48.901Z,0
2023-01-25T20:21:53.021Z,0
2023-01-25T20:24:00.231Z,0
2023-01-25T20:26:07.375Z,0
2023-01-25T20:27:10.390Z,0
2023-01-25T20:29:17.645Z,0
2023-01-25T20:31:26.290Z,0
2023-01-25T20:32:36.541Z,0
2023-01-25T20:33:40.333Z,0
2023-01-25T20:34:44.109Z,0
2023-01-25T20:36:52.275Z,0
2023-01-25T20:39:00.273Z,0
2023-01-25T20:41:08.250Z,0
2023-01-25T20:42:12.065Z,0
2023-01-25T20:44:19.055Z,0
2023-01-25T20:46:26.698Z,0
2023-01-25T20:48:34.749Z,0
2023-01-25T20:49:38.173Z,0
2023-01-25T20:50:41.969Z,0
2023-01-25T20:51:45.671Z,0
2023-01-25T20:53:53.588Z,0
2023-01-25T20:56:01.795Z,0
2023-01-25T20:58:09.250Z,0
2023-01-25T20:59:12.236Z,0
2023-01-25T21:01:20.552Z,0
2023-01-25T21:03:32.155Z,0
2023-01-25T21:04:36.572Z,0
2023-01-25T21:05:40.379Z,0
2023-01-25T21:06:44.026Z,0
2023-01-25T21:08:52.099Z,0
2023-01-25T21:10:59.890Z,0
2023-01-25T21:13:07.092Z,0
2023-01-25T21:14:10.874Z,0
2023-01-25T21:15:14.397Z,0
2023-01-25T21:16:18.225Z,0
2023-01-25T21:18:26.021Z,0
2023-01-25T21:19:29.521Z,0
2023-01-25T21:20:33.127Z,0
2023-01-25T21:21:37.438Z,0
2023-01-25T21:23:44.850Z,0
2023-01-25T21:25:52.530Z,0
2023-01-25T21:26:56.350Z,0
2023-01-25T21:29:04.259Z,0
2023-01-25T21:31:12.977Z,0
2023-01-25T21:33:21.053Z,0
2023-01-25T21:34:24.808Z,0
2023-01-25T21:36:32.628Z,0
2023-01-25T21:38:40.847Z,0
2023-01-25T21:40:48.880Z,0
2023-01-25T21:41:52.649Z,0
2023-01-25T21:42:55.611Z,0
2023-01-25T21:44:00.527Z,0
2023-01-25T21:46:07.493Z,0
2023-01-25T21:47:33.412Z,0
2023-01-25T21:48:36.851Z,0
2023-01-25T21:49:40.531Z,0
2023-01-25T21:51:47.156Z,0
2023-01-25T21:53:54.263Z,0
2023-01-25T21:56:00.758Z,0
2023-01-25T21:57:04.497Z,0
2023-01-25T21:59:12.346Z,0
2023-01-25T22:01:20.018Z,0
2023-01-25T22:03:27.669Z,0
2023-01-25T22:04:30.943Z,0
2023-01-25T22:06:37.189Z,0
2023-01-25T22:08:44.955Z,0
2023-01-25T22:10:51.792Z,0
2023-01-25T22:11:54.804Z,0
2023-01-25T22:14:01.063Z,0
2023-01-25T22:16:07.658Z,0
2023-01-25T22:18:14.010Z,0
2023-01-25T22:19:17.403Z,0
2023-01-25T22:20:20.221Z,0
2023-01-25T22:21:23.707Z,0
2023-01-25T22:23:29.936Z,0
2023-01-25T22:25:37.162Z,0
2023-01-25T22:26:40.419Z,0
2023-01-25T22:28:46.909Z,0
2023-01-25T22:30:55.328Z,0
2023-01-25T22:33:02.985Z,0
2023-01-25T22:34:06.244Z,0
2023-01-25T22:36:13.720Z,0
2023-01-25T22:38:19.844Z,0
2023-01-25T22:40:26.079Z,0
2023-01-25T22:41:29.197Z,0
2023-01-25T22:43:35.348Z,0
2023-01-25T22:45:42.607Z,0
2023-01-25T22:47:49.565Z,0
2023-01-25T22:48:53.234Z,0
2023-01-25T22:51:00.004Z,0
2023-01-25T22:53:06.463Z,0
2023-01-25T22:55:13.086Z,0
2023-01-25T22:56:17.139Z,0
2023-01-25T22:58:23.220Z,0
2023-01-25T23:00:28.632Z,0
2023-01-25T23:02:37.983Z,0
2023-01-25T23:03:41.721Z,0
2023-01-25T23:05:48.777Z,0
2023-01-25T23:07:55.636Z,0
2023-01-25T23:10:02.252Z,0
2023-01-25T23:11:06.014Z,0
2023-01-25T23:13:12.043Z,0
2023-01-25T23:15:17.828Z,0
2023-01-25T23:16:21.543Z,0
2023-01-25T23:17:24.896Z,0
2023-01-25T23:18:27.993Z,0
2023-01-25T23:20:34.266Z,0
2023-01-25T23:22:40.964Z,0
2023-01-25T23:23:44.387Z,0
2023-01-25T23:25:50.551Z,0
2023-01-25T23:27:57.065Z,0
2023-01-25T23:30:03.798Z,0
2023-01-25T23:31:06.839Z,0
2023-01-25T23:33:13.057Z,0
2023-01-25T23:35:19.671Z,0
2023-01-25T23:36:23.453Z,0
2023-01-25T23:38:30.023Z,0
2023-01-25T23:40:36.581Z,0
2023-01-25T23:42:42.912Z,0
2023-01-25T23:43:46.366Z,0
2023-01-25T23:45:52.719Z,0
2023-01-25T23:47:58.526Z,0
2023-01-25T23:50:05.190Z,0
2023-01-25T23:51:08.192Z,0
2023-01-25T23:53:13.990Z,0
2023-01-25T23:55:19.668Z,0
2023-01-25T23:56:38.153Z,0
2023-01-25T23:57:41.780Z,0
2023-01-25T23:58:46.297Z,0
2023-01-25T23:59:50.382Z,0
